createdAt,value
2018-03-08T00:00:50.463Z,4.50
2018-03-08T00:03:18.686Z,4.60
2018-03-08T00:05:46.976Z,4.50
2018-03-08T00:08:15.249Z,4.50
2018-03-08T00:10:43.509Z,4.40
2018-03-08T00:13:11.845Z,4.40
2018-03-08T00:15:40.022Z,4.50
2018-03-08T00:18:08.307Z,4.60
2018-03-08T00:20:36.568Z,4.70
2018-03-08T00:23:04.971Z,4.60
2018-03-08T00:25:33.215Z,4.60
2018-03-08T00:28:01.466Z,4.60
2018-03-08T00:30:29.706Z,4.60
2018-03-08T00:32:58.709Z,4.70
2018-03-08T00:35:26.987Z,4.70
2018-03-08T00:37:55.192Z,4.70
2018-03-08T00:40:23.449Z,4.70
2018-03-08T00:42:51.699Z,4.80
2018-03-08T00:45:19.967Z,4.80
2018-03-08T00:47:49.781Z,4.90
2018-03-08T00:50:18.047Z,4.90
2018-03-08T00:52:46.295Z,5.00
2018-03-08T00:55:14.539Z,4.90
2018-03-08T00:57:43.548Z,4.80
2018-03-08T01:00:11.815Z,4.80
2018-03-08T01:02:40.071Z,4.90
2018-03-08T01:05:09.078Z,5.00
2018-03-08T01:07:37.428Z,4.90
2018-03-08T01:10:05.691Z,5.00
2018-03-08T01:12:33.955Z,5.00
2018-03-08T01:15:02.195Z,5.10
2018-03-08T01:17:30.477Z,5.10
2018-03-08T01:19:58.753Z,5.20
2018-03-08T01:22:27.785Z,5.10
2018-03-08T01:24:56.767Z,5.10
2018-03-08T01:27:25.053Z,5.10
2018-03-08T01:29:53.306Z,5.20
2018-03-08T01:32:21.574Z,5.20
2018-03-08T01:34:50.603Z,5.20
2018-03-08T01:37:18.873Z,5.20
2018-03-08T01:39:47.123Z,5.20
2018-03-08T01:42:15.369Z,5.20
2018-03-08T01:44:44.410Z,5.30
2018-03-08T01:47:12.654Z,5.20
2018-03-08T01:49:41.757Z,5.20
2018-03-08T01:52:12.815Z,5.20
2018-03-08T01:54:41.083Z,5.30
2018-03-08T01:57:10.086Z,5.20
2018-03-08T01:59:38.338Z,5.20
2018-03-08T02:02:06.601Z,5.30
2018-03-08T02:04:34.905Z,5.30
2018-03-08T02:07:03.952Z,5.30
2018-03-08T02:09:32.223Z,5.40
2018-03-08T02:12:00.507Z,5.30
2018-03-08T02:14:29.749Z,5.20
2018-03-08T02:16:58.624Z,5.20
2018-03-08T02:19:28.342Z,5.00
2018-03-08T02:21:56.588Z,5.00
2018-03-08T02:24:24.886Z,5.10
2018-03-08T02:26:53.183Z,5.00
2018-03-08T02:29:21.473Z,5.00
2018-03-08T02:31:50.491Z,5.10
2018-03-08T02:34:18.787Z,5.10
2018-03-08T02:36:47.048Z,5.20
2018-03-08T02:39:15.342Z,5.30
2018-03-08T02:41:44.401Z,5.40
2018-03-08T02:44:12.648Z,5.40
2018-03-08T02:46:41.687Z,5.60
2018-03-08T02:49:09.985Z,5.60
2018-03-08T02:51:38.199Z,5.60
2018-03-08T02:54:06.462Z,5.50
2018-03-08T02:56:34.710Z,5.50
2018-03-08T02:59:03.017Z,5.40
2018-03-08T03:01:31.269Z,5.40
2018-03-08T03:03:59.513Z,5.40
2018-03-08T03:06:28.404Z,5.40
2018-03-08T03:08:56.675Z,5.30
2018-03-08T03:11:25.697Z,5.40
2018-03-08T03:13:53.985Z,5.40
2018-03-08T03:16:22.208Z,5.50
2018-03-08T03:18:51.265Z,5.50
2018-03-08T03:21:19.551Z,5.50
2018-03-08T03:23:47.819Z,5.60
2018-03-08T03:26:16.095Z,5.40
2018-03-08T03:28:44.379Z,5.40
2018-03-08T03:31:12.637Z,5.30
2018-03-08T03:33:40.887Z,5.20
2018-03-08T03:36:09.921Z,5.20
2018-03-08T03:38:38.183Z,5.20
2018-03-08T03:41:07.273Z,5.20
2018-03-08T03:43:35.600Z,5.20
2018-03-08T03:46:04.363Z,5.20
2018-03-08T03:48:32.656Z,5.20
2018-03-08T03:51:00.897Z,5.30
2018-03-08T03:53:29.165Z,5.30
2018-03-08T03:55:57.416Z,5.40
2018-03-08T03:58:26.614Z,5.40
2018-03-08T04:00:54.861Z,5.40
2018-03-08T04:03:23.109Z,5.40
2018-03-08T04:05:51.371Z,5.40
2018-03-08T04:08:19.616Z,5.40
2018-03-08T04:10:47.954Z,5.40
2018-03-08T04:13:16.187Z,5.50
2018-03-08T04:15:44.448Z,5.60
2018-03-08T04:18:12.743Z,5.60
2018-03-08T04:20:41.754Z,5.40
2018-03-08T04:23:10.019Z,5.40
2018-03-08T04:25:40.074Z,5.50
2018-03-08T04:28:08.315Z,5.50
2018-03-08T04:30:37.407Z,5.30
2018-03-08T04:33:06.432Z,5.20
2018-03-08T04:35:34.669Z,5.20
2018-03-08T04:38:03.741Z,5.30
2018-03-08T04:40:32.916Z,5.30
2018-03-08T04:43:01.185Z,5.30
2018-03-08T04:45:29.717Z,5.30
2018-03-08T04:47:57.935Z,5.30
2018-03-08T04:50:26.205Z,5.30
2018-03-08T04:52:54.449Z,5.30
2018-03-08T04:55:24.236Z,5.40
2018-03-08T04:57:52.473Z,5.40
2018-03-08T05:00:21.541Z,5.30
2018-03-08T05:02:50.645Z,5.20
2018-03-08T05:05:20.495Z,5.30
2018-03-08T05:07:48.750Z,5.20
2018-03-08T05:10:17.758Z,5.20
2018-03-08T05:12:46.034Z,5.20
2018-03-08T05:15:14.292Z,5.30
2018-03-08T05:17:43.343Z,5.30
2018-03-08T05:20:12.382Z,5.30
2018-03-08T05:22:41.406Z,5.30
2018-03-08T05:25:09.679Z,5.30
2018-03-08T05:27:37.920Z,5.30
2018-03-08T05:30:08.651Z,5.20
2018-03-08T05:32:36.874Z,5.20
2018-03-08T05:35:05.141Z,5.10
2018-03-08T05:37:34.165Z,5.00
2018-03-08T05:40:02.814Z,5.00
2018-03-08T05:42:31.901Z,4.90
2018-03-08T05:45:01.069Z,5.00
2018-03-08T05:47:29.396Z,5.00
2018-03-08T05:49:57.694Z,5.00
2018-03-08T05:52:25.971Z,4.90
2018-03-08T05:54:54.222Z,4.90
2018-03-08T05:57:23.265Z,4.80
2018-03-08T05:59:51.576Z,4.80
2018-03-08T06:02:20.613Z,4.70
2018-03-08T06:04:48.915Z,4.70
2018-03-08T06:07:17.195Z,4.80
2018-03-08T06:09:45.428Z,4.80
2018-03-08T06:12:13.691Z,4.80
2018-03-08T06:14:42.695Z,4.80
2018-03-08T06:17:10.941Z,4.80
2018-03-08T06:19:39.216Z,4.80
2018-03-08T06:22:08.223Z,4.70
2018-03-08T06:24:37.262Z,4.70
2018-03-08T06:27:05.489Z,4.70
2018-03-08T06:29:34.500Z,4.70
2018-03-08T06:32:03.544Z,4.70
2018-03-08T06:34:31.750Z,4.70
2018-03-08T06:37:00.090Z,4.70
2018-03-08T06:39:28.338Z,4.70
2018-03-08T06:41:57.357Z,4.80
2018-03-08T06:44:25.599Z,4.80
2018-03-08T06:46:53.905Z,4.90
2018-03-08T06:49:23.566Z,5.00
2018-03-08T06:51:52.967Z,5.10
2018-03-08T06:54:21.217Z,5.10
2018-03-08T06:56:49.439Z,5.10
2018-03-08T06:59:17.729Z,5.10
2018-03-08T07:01:46.723Z,5.20
2018-03-08T07:04:15.099Z,5.20
2018-03-08T07:06:43.282Z,5.20
2018-03-08T07:09:11.550Z,5.30
2018-03-08T07:11:40.542Z,5.30
2018-03-08T07:14:09.557Z,5.20
2018-03-08T07:16:38.656Z,5.10
2018-03-08T07:19:07.019Z,5.20
2018-03-08T07:21:35.438Z,5.20
2018-03-08T07:24:03.686Z,5.20
2018-03-08T07:26:31.900Z,5.10
2018-03-08T07:29:00.134Z,5.30
2018-03-08T07:31:28.415Z,5.20
2018-03-08T07:33:57.845Z,5.30
2018-03-08T07:36:26.186Z,5.30
2018-03-08T07:38:55.951Z,5.50
2018-03-08T07:41:24.191Z,5.50
2018-03-08T07:43:52.468Z,5.50
2018-03-08T07:46:21.483Z,5.60
2018-03-08T07:48:49.750Z,5.60
2018-03-08T07:51:17.981Z,5.70
2018-03-08T07:53:46.246Z,5.50
2018-03-08T07:56:14.506Z,5.50
2018-03-08T07:58:42.767Z,5.50
2018-03-08T08:01:11.054Z,5.50
2018-03-08T08:03:39.311Z,5.60
2018-03-08T08:06:19.426Z,5.70
2018-03-08T08:09:00.402Z,5.90
2018-03-08T08:11:29.417Z,6.00
2018-03-08T08:13:58.414Z,5.90
2018-03-08T08:16:26.677Z,5.90
2018-03-08T08:18:55.696Z,6.00
2018-03-08T08:21:24.719Z,6.00
2018-03-08T08:23:52.973Z,5.90
2018-03-08T08:26:21.274Z,6.00
2018-03-08T08:28:49.507Z,5.80
2018-03-08T08:31:17.867Z,5.80
2018-03-08T08:33:46.115Z,5.90
2018-03-08T08:36:14.373Z,5.90
2018-03-08T08:38:42.603Z,6.00
2018-03-08T08:41:10.841Z,6.20
2018-03-08T08:43:39.102Z,6.30
2018-03-08T08:46:07.376Z,6.40
2018-03-08T08:48:35.602Z,6.50
2018-03-08T08:51:04.632Z,6.60
2018-03-08T08:53:33.627Z,6.70
2018-03-08T08:56:01.885Z,6.70
2018-03-08T08:58:30.163Z,6.80
2018-03-08T09:00:58.404Z,6.80
2018-03-08T09:03:26.624Z,6.80
2018-03-08T09:05:55.624Z,6.80
2018-03-08T09:08:24.135Z,6.70
2018-03-08T09:10:52.396Z,6.80
2018-03-08T09:13:20.638Z,6.90
2018-03-08T09:15:49.702Z,7.00
2018-03-08T09:18:17.907Z,7.00
2018-03-08T09:20:46.948Z,7.20
2018-03-08T09:23:15.209Z,7.20
2018-03-08T09:25:44.254Z,7.10
2018-03-08T09:28:12.471Z,7.00
2018-03-08T09:30:41.495Z,6.90
2018-03-08T09:33:09.801Z,6.90
2018-03-08T09:35:38.036Z,6.90
2018-03-08T09:38:06.338Z,6.90
2018-03-08T09:40:34.576Z,7.10
2018-03-08T09:43:03.606Z,7.40
2018-03-08T09:45:31.884Z,7.40
2018-03-08T09:48:00.193Z,7.30
2018-03-08T09:50:28.475Z,7.40
2018-03-08T09:52:58.213Z,7.60
2018-03-08T09:55:26.495Z,7.60
2018-03-08T09:57:55.532Z,7.80
2018-03-08T10:00:23.850Z,7.80
2018-03-08T10:02:52.095Z,7.90
2018-03-08T10:05:20.349Z,8.00
2018-03-08T10:07:48.607Z,8.20
2018-03-08T10:10:17.673Z,8.30
2018-03-08T10:12:46.719Z,8.40
2018-03-08T10:15:14.963Z,8.40
2018-03-08T10:17:43.174Z,8.60
2018-03-08T10:20:11.462Z,8.80
2018-03-08T10:22:39.754Z,8.90
2018-03-08T10:25:08.010Z,8.90
2018-03-08T10:27:36.878Z,8.80
2018-03-08T10:30:05.903Z,8.80
2018-03-08T10:32:34.135Z,8.80
2018-03-08T10:35:03.181Z,9.20
2018-03-08T10:37:31.882Z,9.20
2018-03-08T10:40:00.122Z,9.30
2018-03-08T10:44:56.724Z,9.60
2018-03-08T10:47:25.112Z,9.70
2018-03-08T10:49:53.334Z,9.80
2018-03-08T10:52:21.597Z,9.60
2018-03-08T10:54:49.910Z,9.50
2018-03-08T10:57:18.131Z,9.70
2018-03-08T10:59:46.396Z,9.80
2018-03-08T11:02:17.165Z,9.80
2018-03-08T11:05:01.858Z,9.90
2018-03-08T11:07:30.092Z,9.90
2018-03-08T11:09:59.120Z,10.00
2018-03-08T11:12:27.692Z,10.00
2018-03-08T11:14:56.698Z,9.70
2018-03-08T11:17:24.963Z,9.70
2018-03-08T11:19:53.996Z,9.60
2018-03-08T11:22:22.230Z,9.60
2018-03-08T11:24:50.464Z,9.60
2018-03-08T11:27:19.060Z,9.60
2018-03-08T11:29:47.258Z,9.50
2018-03-08T11:32:16.274Z,9.20
2018-03-08T11:34:44.512Z,9.20
2018-03-08T11:37:12.787Z,9.30
2018-03-08T11:39:41.371Z,9.20
2018-03-08T11:42:09.656Z,9.20
2018-03-08T11:44:37.872Z,9.30
2018-03-08T11:47:06.118Z,9.40
2018-03-08T11:49:35.715Z,9.70
2018-03-08T11:52:04.728Z,9.70
2018-03-08T11:54:33.213Z,9.90
2018-03-08T11:57:01.481Z,10.10
2018-03-08T11:59:30.497Z,10.20
2018-03-08T12:01:58.745Z,10.20
2018-03-08T12:04:27.793Z,10.20
2018-03-08T12:06:56.206Z,10.20
2018-03-08T12:09:25.226Z,9.80
2018-03-08T12:11:54.266Z,9.80
2018-03-08T12:14:22.482Z,9.80
2018-03-08T12:16:51.517Z,9.80
2018-03-08T12:19:20.496Z,9.70
2018-03-08T12:21:49.527Z,9.70
2018-03-08T12:24:17.762Z,9.70
2018-03-08T12:26:46.122Z,9.60
2018-03-08T12:29:14.366Z,9.70
2018-03-08T12:31:42.603Z,9.70
2018-03-08T12:34:10.855Z,9.80
2018-03-08T12:36:39.151Z,9.80
2018-03-08T12:39:08.194Z,9.90
2018-03-08T12:41:36.460Z,9.90
2018-03-08T12:44:04.734Z,9.90
2018-03-08T12:46:33.910Z,10.10
2018-03-08T12:49:02.206Z,10.20
2018-03-08T12:51:30.470Z,10.30
2018-03-08T12:53:59.029Z,10.40
2018-03-08T12:56:28.062Z,10.30
2018-03-08T12:58:56.303Z,10.30
2018-03-08T13:01:25.338Z,10.10
2018-03-08T13:03:53.586Z,10.10
2018-03-08T13:06:21.852Z,10.00
2018-03-08T13:08:50.918Z,9.90
2018-03-08T13:11:19.242Z,9.80
2018-03-08T13:13:47.511Z,9.80
2018-03-08T13:16:16.561Z,9.80
2018-03-08T13:18:44.815Z,9.70
2018-03-08T13:21:13.072Z,9.70
2018-03-08T13:23:41.344Z,9.70
2018-03-08T13:26:09.579Z,9.70
2018-03-08T13:28:37.826Z,9.60
2018-03-08T13:31:06.082Z,9.50
2018-03-08T13:33:34.333Z,9.50
2018-03-08T13:36:03.278Z,9.60
2018-03-08T13:38:32.070Z,9.60
2018-03-08T13:41:00.384Z,9.60
2018-03-08T13:43:28.698Z,9.50
2018-03-08T13:45:56.971Z,9.40
2018-03-08T13:48:26.236Z,9.30
2018-03-08T13:50:54.596Z,9.30
2018-03-08T13:53:22.879Z,9.20
2018-03-08T13:55:51.130Z,9.00
2018-03-08T13:58:19.367Z,8.90
2018-03-08T14:00:50.114Z,8.90
2018-03-08T14:03:19.102Z,9.00
2018-03-08T14:05:48.203Z,9.00
2018-03-08T14:08:17.607Z,9.00
2018-03-08T14:10:46.633Z,8.90
2018-03-08T14:13:15.027Z,8.90
2018-03-08T14:15:43.292Z,8.90
2018-03-08T14:18:11.531Z,8.90
2018-03-08T14:20:40.546Z,8.60
2018-03-08T14:23:08.850Z,8.60
2018-03-08T14:25:37.159Z,8.40
2018-03-08T14:28:05.421Z,8.40
2018-03-08T14:30:34.491Z,8.10
2018-03-08T14:33:02.819Z,8.10
2018-03-08T14:35:32.355Z,8.10
2018-03-08T14:38:01.422Z,8.00
2018-03-08T14:40:30.484Z,8.00
2018-03-08T14:42:58.742Z,8.00
2018-03-08T14:45:27.029Z,7.90
2018-03-08T14:47:55.337Z,7.90
2018-03-08T14:50:25.435Z,7.70
2018-03-08T14:52:53.678Z,7.70
2018-03-08T14:55:22.717Z,7.70
2018-03-08T14:57:50.986Z,7.60
2018-03-08T15:00:19.263Z,7.70
2018-03-08T15:02:47.491Z,7.70
2018-03-08T15:05:16.566Z,7.70
2018-03-08T15:07:44.800Z,7.70
2018-03-08T15:10:13.101Z,7.90
2018-03-08T15:12:41.414Z,7.90
2018-03-08T15:15:09.847Z,7.80
2018-03-08T15:17:38.165Z,7.80
2018-03-08T15:20:06.425Z,7.80
2018-03-08T15:22:34.701Z,7.70
2018-03-08T15:25:02.966Z,7.60
2018-03-08T15:27:31.196Z,7.70
2018-03-08T15:29:59.502Z,7.60
2018-03-08T15:32:28.411Z,7.50
2018-03-08T15:34:56.777Z,7.50
2018-03-08T15:37:25.859Z,7.30
2018-03-08T15:39:54.912Z,7.20
2018-03-08T15:42:23.184Z,7.20
2018-03-08T15:44:52.767Z,7.10
2018-03-08T15:47:21.017Z,7.00
2018-03-08T15:49:49.305Z,6.90
2018-03-08T15:52:17.549Z,6.90
2018-03-08T15:54:46.555Z,6.70
2018-03-08T15:57:15.633Z,6.70
2018-03-08T15:59:44.638Z,6.70
2018-03-08T16:02:13.677Z,6.70
2018-03-08T16:04:41.943Z,6.70
2018-03-08T16:07:30.879Z,6.60
2018-03-08T16:13:03.912Z,6.40
2018-03-08T16:15:32.171Z,6.40
2018-03-08T16:18:01.222Z,6.30
2018-03-08T16:20:30.029Z,6.30
2018-03-08T16:22:58.295Z,6.30
2018-03-08T16:25:26.683Z,6.30
2018-03-08T16:27:55.135Z,6.30
2018-03-08T16:30:23.549Z,6.30
2018-03-08T16:32:51.786Z,6.30
2018-03-08T16:35:20.099Z,6.30
2018-03-08T16:37:48.479Z,6.20
2018-03-08T16:40:16.748Z,6.20
2018-03-08T16:42:45.131Z,6.10
2018-03-08T16:45:13.383Z,6.00
2018-03-08T16:47:41.757Z,5.90
2018-03-08T16:50:10.039Z,5.80
2018-03-08T16:52:38.290Z,5.80
2018-03-08T16:55:06.544Z,5.70
2018-03-08T16:57:35.647Z,5.60
2018-03-08T17:00:03.955Z,5.50
2018-03-08T17:02:32.225Z,5.50
2018-03-08T17:05:00.985Z,5.40
2018-03-08T17:07:29.194Z,5.30
2018-03-08T17:09:57.894Z,5.20
2018-03-08T17:12:26.187Z,5.20
2018-03-08T17:14:54.438Z,5.20
2018-03-08T17:17:24.932Z,5.20
2018-03-08T17:19:53.321Z,5.20
2018-03-08T17:22:22.386Z,5.20
2018-03-08T17:24:50.992Z,5.20
2018-03-08T17:27:20.028Z,5.30
2018-03-08T17:29:48.352Z,5.30
2018-03-08T17:32:17.864Z,5.30
2018-03-08T17:34:46.147Z,5.20
2018-03-08T17:37:14.743Z,5.30
2018-03-08T17:39:43.029Z,5.30
2018-03-08T17:42:12.032Z,5.40
2018-03-08T17:44:40.421Z,5.30
2018-03-08T17:47:08.696Z,5.30
2018-03-08T17:49:36.943Z,5.40
2018-03-08T17:52:05.978Z,5.40
2018-03-08T17:54:34.291Z,5.40
2018-03-08T17:57:02.520Z,5.30
2018-03-08T17:59:30.807Z,5.40
2018-03-08T18:01:59.085Z,5.40
2018-03-08T18:04:27.312Z,5.40
2018-03-08T18:06:55.682Z,5.40
2018-03-08T18:09:23.939Z,5.40
2018-03-08T18:11:52.223Z,5.40
2018-03-08T18:14:20.496Z,5.40
2018-03-08T18:16:48.753Z,5.40
2018-03-08T18:19:18.600Z,5.30
2018-03-08T18:21:46.893Z,5.30
2018-03-08T18:24:15.950Z,5.20
2018-03-08T18:26:44.245Z,5.20
2018-03-08T18:29:12.693Z,5.20
2018-03-08T18:31:41.013Z,5.10
2018-03-08T18:34:09.391Z,5.10
2018-03-08T18:36:39.408Z,5.00
2018-03-08T18:39:07.735Z,5.00
2018-03-08T18:41:37.206Z,5.00
2018-03-08T18:44:05.517Z,5.00
2018-03-08T18:46:35.028Z,4.90
2018-03-08T18:49:04.127Z,5.00
2018-03-08T18:51:33.598Z,4.90
2018-03-08T18:54:04.184Z,4.80
2018-03-08T18:56:34.057Z,4.80
2018-03-08T18:59:03.167Z,4.80
2018-03-08T19:01:31.572Z,4.80
2018-03-08T19:04:00.735Z,4.80
2018-03-08T19:06:29.813Z,4.90
2018-03-08T19:08:58.177Z,4.80
2018-03-08T19:11:27.284Z,4.80
2018-03-08T19:13:55.598Z,4.80
2018-03-08T19:16:23.962Z,4.80
2018-03-08T19:18:52.984Z,4.80
2018-03-08T19:21:21.297Z,4.70
2018-03-08T19:23:49.613Z,4.70
2018-03-08T19:26:18.791Z,4.70
2018-03-08T19:28:47.071Z,4.70
2018-03-08T19:31:16.883Z,4.70
2018-03-08T19:33:45.245Z,4.70
2018-03-08T19:36:13.529Z,4.70
2018-03-08T19:38:42.686Z,4.80
2018-03-08T19:41:10.988Z,4.80
2018-03-08T19:43:39.311Z,4.90
2018-03-08T19:46:08.902Z,5.00
2018-03-08T19:48:38.512Z,5.00
2018-03-08T19:51:07.773Z,5.10
2018-03-08T19:53:36.113Z,5.10
2018-03-08T19:56:05.159Z,5.20
2018-03-08T19:58:33.482Z,5.20
2018-03-08T20:01:02.533Z,5.20
2018-03-08T20:03:30.777Z,5.20
2018-03-08T20:05:59.045Z,5.10
2018-03-08T20:08:28.064Z,3.50
2018-03-08T20:10:56.658Z,3.50
2018-03-08T20:13:24.940Z,3.40
2018-03-08T20:15:53.204Z,3.30
2018-03-08T20:18:22.276Z,3.20
2018-03-08T20:20:51.502Z,3.20
2018-03-08T20:23:19.781Z,3.20
2018-03-08T20:25:48.061Z,3.10
2018-03-08T20:28:16.362Z,3.20
2018-03-08T20:30:45.074Z,3.10
2018-03-08T20:33:13.664Z,3.20
2018-03-08T20:35:41.911Z,3.30
2018-03-08T20:38:10.148Z,3.30
2018-03-08T20:40:38.421Z,3.30
2018-03-08T20:43:07.552Z,3.50
2018-03-08T20:45:35.792Z,3.40
2018-03-08T20:48:04.830Z,3.50
2018-03-08T20:50:33.096Z,3.50
2018-03-08T20:53:01.342Z,3.50
2018-03-08T20:55:29.653Z,3.60
2018-03-08T20:57:57.909Z,3.60
2018-03-08T21:00:26.178Z,3.60
2018-03-08T21:02:55.229Z,3.60
2018-03-08T21:05:23.508Z,3.60
2018-03-08T21:07:51.755Z,3.60
2018-03-08T21:10:20.014Z,3.70
2018-03-08T21:12:48.292Z,3.70
2018-03-08T21:15:16.618Z,3.70
2018-03-08T21:17:46.538Z,3.70
2018-03-08T21:20:14.804Z,3.70
2018-03-08T21:22:44.578Z,3.70
2018-03-08T21:25:12.829Z,3.70
2018-03-08T21:27:41.100Z,3.70
2018-03-08T21:30:10.126Z,3.80
2018-03-08T21:32:38.377Z,3.70
2018-03-08T21:35:07.449Z,3.90
2018-03-08T21:37:35.749Z,3.80
2018-03-08T21:40:05.514Z,3.90
2018-03-08T21:42:33.790Z,3.90
2018-03-08T21:45:02.066Z,3.90
2018-03-08T21:47:30.352Z,3.90
2018-03-08T21:49:59.428Z,4.10
2018-03-08T21:52:27.693Z,4.10
2018-03-08T21:54:55.976Z,4.10
2018-03-08T21:57:24.238Z,4.10
2018-03-08T21:59:53.246Z,4.10
2018-03-08T22:02:21.537Z,4.10
2018-03-08T22:04:49.800Z,4.10
2018-03-08T22:07:18.094Z,4.10
2018-03-08T22:09:46.371Z,4.10
2018-03-08T22:12:14.689Z,4.10
2018-03-08T22:14:42.945Z,4.10
2018-03-08T22:17:11.248Z,4.10
2018-03-08T22:19:40.990Z,4.20
2018-03-08T22:22:09.248Z,4.20
2018-03-08T22:24:38.306Z,4.30
2018-03-08T22:27:06.562Z,4.30
2018-03-08T22:29:34.836Z,4.20
2018-03-08T22:32:03.110Z,4.20
2018-03-08T22:34:31.360Z,4.20
2018-03-08T22:37:00.394Z,4.20
2018-03-08T22:39:28.688Z,4.10
2018-03-08T22:41:56.965Z,4.10
2018-03-08T22:44:25.191Z,4.10
2018-03-08T22:46:54.213Z,4.10
2018-03-08T22:49:22.473Z,4.00
2018-03-08T22:51:50.731Z,4.00
2018-03-08T22:54:19.812Z,4.00
2018-03-08T22:56:48.096Z,4.00
2018-03-08T22:59:16.350Z,4.00
2018-03-08T23:02:14.376Z,4.00
2018-03-08T23:04:42.632Z,4.00
2018-03-08T23:07:11.670Z,3.90
2018-03-08T23:09:39.909Z,3.90
2018-03-08T23:12:08.968Z,3.80
2018-03-08T23:14:37.217Z,3.80
2018-03-08T23:17:05.517Z,3.80
2018-03-08T23:19:33.796Z,3.80
2018-03-08T23:22:02.050Z,3.70
2018-03-08T23:24:30.321Z,3.70
2018-03-08T23:26:58.608Z,3.80
2018-03-08T23:29:26.904Z,3.80
2018-03-08T23:31:55.165Z,3.70
2018-03-08T23:34:23.431Z,3.80
2018-03-08T23:36:51.668Z,3.70
2018-03-08T23:39:20.702Z,3.70
2018-03-08T23:41:48.982Z,3.70
2018-03-08T23:44:17.201Z,3.70
2018-03-08T23:46:45.475Z,3.70
2018-03-08T23:49:13.715Z,3.70
2018-03-08T23:51:41.982Z,3.70
2018-03-08T23:54:10.236Z,3.70
2018-03-08T23:56:39.257Z,3.60
2018-03-08T23:59:07.493Z,3.60
